Time,TemperatureF,DewpointF,PressureIn,WindDirection,WindDirectionDegrees,WindSpeedMPH,WindSpeedGustMPH,Humidity,HourlyPrecipIn,Conditions,Clouds,dailyrainin,SoftwareType,DateUTC
2013-01-02 00:00:00,38.0,30.8,29.99,NNW,331,1.0,5.0,75,0.00,,,0.00,Wunderground v.1.15,2013-01-02 05:00:00,
2013-01-02 00:05:00,37.9,30.4,30.00,NNW,342,1.0,5.0,74,0.00,,,0.00,Wunderground v.1.15,2013-01-02 05:05:00,
2013-01-02 00:10:00,37.8,30.3,29.99,North,349,2.0,2.0,74,0.00,,,0.00,Wunderground v.1.15,2013-01-02 05:10:00,
2013-01-02 00:20:00,37.7,30.2,30.00,NNW,330,1.0,1.0,74,0.00,,,0.00,Wunderground v.1.15,2013-01-02 05:20:00,
2013-01-02 00:25:00,37.7,30.2,29.99,North,10,2.0,5.0,74,0.00,,,0.00,Wunderground v.1.15,2013-01-02 05:25:00,
2013-01-02 00:30:00,37.7,30.2,29.99,North,355,2.0,2.0,74,0.00,,,0.00,Wunderground v.1.15,2013-01-02 05:30:00,
2013-01-02 00:35:00,37.5,30.0,29.99,NNE,20,2.0,4.0,74,0.00,,,0.00,Wunderground v.1.15,2013-01-02 05:35:00,
2013-01-02 00:45:00,37.5,30.3,29.99,North,349,2.0,5.0,75,0.00,,,0.00,Wunderground v.1.15,2013-01-02 05:45:00,
2013-01-02 00:50:00,37.5,30.3,29.99,NE,37,1.0,5.0,75,0.00,,,0.00,Wunderground v.1.15,2013-01-02 05:50:00,
2013-01-02 00:55:00,37.5,30.3,29.99,NE,38,1.0,5.0,75,0.00,,,0.00,Wunderground v.1.15,2013-01-02 05:55:00,
2013-01-02 01:00:00,37.5,30.0,30.00,NNW,344,1.0,5.0,74,0.00,,,0.00,Wunderground v.1.15,2013-01-02 06:00:00,
2013-01-02 01:10:00,37.3,29.8,29.99,NNW,346,1.0,1.0,74,0.00,,,0.00,Wunderground v.1.15,2013-01-02 06:10:00,
2013-01-02 01:15:00,37.3,29.8,29.99,NNW,333,1.0,2.0,74,0.00,,,0.00,Wunderground v.1.15,2013-01-02 06:15:00,
2013-01-02 01:20:00,37.3,29.8,29.99,NNW,333,1.0,1.0,74,0.00,,,0.00,Wunderground v.1.15,2013-01-02 06:20:00,
2013-01-02 01:25:00,37.3,29.8,30.00,NNW,333,0.0,5.0,74,0.00,,,0.00,Wunderground v.1.15,2013-01-02 06:25:00,
2013-01-02 01:30:00,37.3,29.8,29.99,NNW,333,1.0,1.0,74,0.00,,,0.00,Wunderground v.1.15,2013-01-02 06:30:00,
2013-01-02 01:40:00,37.2,29.7,30.00,NNW,334,1.0,1.0,74,0.00,,,0.00,Wunderground v.1.15,2013-01-02 06:40:00,
2013-01-02 01:45:00,37.3,30.1,29.99,NE,43,1.0,5.0,75,0.00,,,0.00,Wunderground v.1.15,2013-01-02 06:45:00,
2013-01-02 01:55:00,37.1,29.2,30.00,NNW,344,1.0,5.0,73,0.00,,,0.00,Wunderground v.1.15,2013-01-02 06:55:00,
2013-01-02 02:00:00,37.0,28.8,30.00,NNE,23,1.0,5.0,72,0.00,,,0.00,Wunderground v.1.15,2013-01-02 07:00:00,
2013-01-02 02:05:00,36.9,28.7,30.00,North,355,1.0,5.0,72,0.00,,,0.00,Wunderground v.1.15,2013-01-02 07:05:00,
2013-01-02 02:10:00,36.8,28.6,30.01,North,355,2.0,6.0,72,0.00,,,0.00,Wunderground v.1.15,2013-01-02 07:10:00,
2013-01-02 02:15:00,36.8,28.6,30.01,NNW,347,2.0,6.0,72,0.00,,,0.00,Wunderground v.1.15,2013-01-02 07:15:00,
2013-01-02 02:25:00,36.7,28.5,30.00,NNE,30,1.0,5.0,72,0.00,,,0.00,Wunderground v.1.15,2013-01-02 07:25:00,
2013-01-02 02:30:00,36.7,28.2,30.00,NNE,15,1.0,5.0,71,0.00,,,0.00,Wunderground v.1.15,2013-01-02 07:30:00,
2013-01-02 02:35:00,36.6,27.7,30.00,North,349,1.0,5.0,70,0.00,,,0.00,Wunderground v.1.15,2013-01-02 07:35:00,
2013-01-02 02:40:00,36.6,27.7,30.00,NNW,348,1.0,1.0,70,0.00,,,0.00,Wunderground v.1.15,2013-01-02 07:40:00,
2013-01-02 02:45:00,36.5,27.3,30.00,North,349,1.0,5.0,69,0.00,,,0.00,Wunderground v.1.15,2013-01-02 07:45:00,
2013-01-02 02:55:00,36.5,28.7,30.00,North,349,0.0,5.0,73,0.00,,,0.00,Wunderground v.1.15,2013-01-02 07:55:00,
2013-01-02 03:05:00,36.8,27.9,30.01,North,349,0.0,5.0,70,0.00,,,0.00,Wunderground v.1.15,2013-01-02 08:05:00,
2013-01-02 03:10:00,36.6,27.4,30.01,North,350,1.0,5.0,69,0.00,,,0.00,Wunderground v.1.15,2013-01-02 08:10:00,
2013-01-02 03:15:00,36.4,27.5,30.00,NNW,337,1.0,5.0,70,0.00,,,0.00,Wunderground v.1.15,2013-01-02 08:15:00,
2013-01-02 03:20:00,36.2,27.4,30.01,NNW,338,1.0,5.0,70,0.00,,,0.00,Wunderground v.1.15,2013-01-02 08:20:00,
2013-01-02 03:30:00,36.1,27.6,30.00,North,5,0.0,5.0,71,0.00,,,0.00,Wunderground v.1.15,2013-01-02 08:30:00,
2013-01-02 03:35:00,36.0,27.5,30.00,NNE,33,1.0,5.0,71,0.00,,,0.00,Wunderground v.1.15,2013-01-02 08:35:00,
2013-01-02 03:40:00,36.0,27.8,30.00,NE,34,1.0,1.0,72,0.00,,,0.00,Wunderground v.1.15,2013-01-02 08:40:00,
2013-01-02 03:45:00,36.0,27.5,30.01,NNE,33,1.0,5.0,71,0.00,,,0.00,Wunderground v.1.15,2013-01-02 08:45:00,
2013-01-02 03:50:00,35.9,27.1,30.01,NNE,25,0.0,5.0,70,0.00,,,0.00,Wunderground v.1.15,2013-01-02 08:50:00,
2013-01-02 04:00:00,35.9,27.4,30.00,NNE,25,0.0,5.0,71,0.00,,,0.00,Wunderground v.1.15,2013-01-02 09:00:00,
2013-01-02 04:05:00,35.9,27.7,30.01,NNE,25,0.0,5.0,72,0.00,,,0.00,Wunderground v.1.15,2013-01-02 09:05:00,
2013-01-02 04:10:00,35.9,28.1,30.01,NNE,25,0.0,5.0,73,0.00,,,0.00,Wunderground v.1.15,2013-01-02 09:10:00,
2013-01-02 04:15:00,35.8,27.7,30.00,NNE,25,0.0,5.0,72,0.00,,,0.00,Wunderground v.1.15,2013-01-02 09:15:00,
2013-01-02 04:20:00,35.8,27.3,30.00,NNE,25,0.0,5.0,71,0.00,,,0.00,Wunderground v.1.15,2013-01-02 09:20:00,
2013-01-02 04:30:00,35.7,27.6,30.00,North,355,0.0,5.0,72,0.00,,,0.00,Wunderground v.1.15,2013-01-02 09:30:00,
2013-01-02 04:35:00,35.7,27.9,30.02,North,355,0.0,5.0,73,0.00,,,0.00,Wunderground v.1.15,2013-01-02 09:35:00,
2013-01-02 04:40:00,35.7,27.2,30.02,North,355,0.0,5.0,71,0.00,,,0.00,Wunderground v.1.15,2013-01-02 09:40:00,
2013-01-02 04:45:00,35.5,26.7,30.01,North,355,0.0,5.0,70,0.00,,,0.00,Wunderground v.1.15,2013-01-02 09:45:00,
2013-01-02 04:55:00,35.4,26.9,30.00,North,355,1.0,5.0,71,0.00,,,0.00,Wunderground v.1.15,2013-01-02 09:55:00,
2013-01-02 05:00:00,35.4,26.9,30.00,North,355,0.0,5.0,71,0.00,,,0.00,Wunderground v.1.15,2013-01-02 10:00:00,
2013-01-02 05:05:00,35.3,26.1,30.00,North,355,1.0,5.0,69,0.00,,,0.00,Wunderground v.1.15,2013-01-02 10:05:00,
2013-01-02 05:10:00,35.1,25.9,30.01,North,355,1.0,1.0,69,0.00,,,0.00,Wunderground v.1.15,2013-01-02 10:10:00,
2013-01-02 05:15:00,34.8,25.7,30.02,NNE,15,1.0,5.0,69,0.00,,,0.00,Wunderground v.1.15,2013-01-02 10:15:00,
2013-01-02 05:25:00,34.5,25.4,30.02,NNW,345,1.0,5.0,69,0.00,,,0.00,Wunderground v.1.15,2013-01-02 10:25:00,
2013-01-02 05:30:00,34.4,25.3,30.02,NE,34,1.0,5.0,69,0.00,,,0.00,Wunderground v.1.15,2013-01-02 10:30:00,
2013-01-02 05:35:00,34.4,25.3,30.02,NNW,342,1.0,5.0,69,0.00,,,0.00,Wunderground v.1.15,2013-01-02 10:35:00,
2013-01-02 05:40:00,34.4,25.6,30.01,NNE,16,1.0,5.0,70,0.00,,,0.00,Wunderground v.1.15,2013-01-02 10:40:00,
2013-01-02 05:50:00,34.4,25.3,30.02,NNE,28,1.0,1.0,69,0.00,,,0.00,Wunderground v.1.15,2013-01-02 10:50:00,
2013-01-02 05:55:00,34.4,25.3,30.02,North,355,1.0,5.0,69,0.00,,,0.00,Wunderground v.1.15,2013-01-02 10:55:00,
2013-01-02 06:00:00,34.4,24.9,30.02,NE,55,1.0,5.0,68,0.00,,,0.00,Wunderground v.1.15,2013-01-02 11:00:00,
2013-01-02 06:05:00,34.2,25.1,30.02,ENE,57,1.0,5.0,69,0.00,,,0.00,Wunderground v.1.15,2013-01-02 11:05:00,
2013-01-02 06:10:00,34.1,25.0,30.02,North,350,2.0,5.0,69,0.00,,,0.00,Wunderground v.1.15,2013-01-02 11:10:00,
2013-01-02 06:20:00,33.9,24.8,30.03,North,9,2.0,5.0,69,0.00,,,0.00,Wunderground v.1.15,2013-01-02 11:20:00,
2013-01-02 06:25:00,33.8,24.7,30.03,North,360,1.0,5.0,69,0.00,,,0.00,Wunderground v.1.15,2013-01-02 11:25:00,
2013-01-02 06:30:00,33.9,24.8,30.04,NNW,348,1.0,1.0,69,0.00,,,0.00,Wunderground v.1.15,2013-01-02 11:30:00,
2013-01-02 06:35:00,33.9,24.8,30.04,North,360,1.0,5.0,69,0.00,,,0.00,Wunderground v.1.15,2013-01-02 11:35:00,
2013-01-02 06:45:00,33.6,24.2,30.05,North,351,1.0,5.0,68,0.00,,,0.00,Wunderground v.1.15,2013-01-02 11:45:00,
2013-01-02 06:50:00,33.5,24.4,30.05,North,350,1.0,1.0,69,0.00,,,0.00,Wunderground v.1.15,2013-01-02 11:50:00,
2013-01-02 06:55:00,33.4,24.3,30.05,North,351,1.0,5.0,69,0.00,,,0.00,Wunderground v.1.15,2013-01-02 11:55:00,
2013-01-02 07:00:00,33.3,24.2,30.05,North,355,1.0,5.0,69,0.00,,,0.00,Wunderground v.1.15,2013-01-02 12:00:00,
2013-01-02 07:05:00,33.3,24.6,30.05,NNE,14,1.0,5.0,70,0.00,,,0.00,Wunderground v.1.15,2013-01-02 12:05:00,
2013-01-02 07:15:00,33.1,24.4,30.06,North,355,1.0,5.0,70,0.00,,,0.00,Wunderground v.1.15,2013-01-02 12:15:00,
2013-01-02 07:20:00,33.0,24.3,30.07,North,355,1.0,1.0,70,0.00,,,0.00,Wunderground v.1.15,2013-01-02 12:20:00,
2013-01-02 07:25:00,32.9,24.2,30.07,North,355,0.0,5.0,70,0.00,,,0.00,Wunderground v.1.15,2013-01-02 12:25:00,
2013-01-02 07:30:00,32.8,24.4,30.08,North,355,1.0,1.0,71,0.00,,,0.00,Wunderground v.1.15,2013-01-02 12:30:00,
2013-01-02 07:35:00,32.8,24.8,30.08,North,355,0.0,5.0,72,0.00,,,0.00,Wunderground v.1.15,2013-01-02 12:35:00,
2013-01-02 07:45:00,32.6,24.2,30.08,North,355,0.0,5.0,71,0.00,,,0.00,Wunderground v.1.15,2013-01-02 12:45:00,
2013-01-02 07:50:00,32.5,24.1,30.09,North,355,1.0,5.0,71,0.00,,,0.00,Wunderground v.1.15,2013-01-02 12:50:00,
2013-01-02 07:55:00,32.4,23.4,30.09,North,355,2.0,5.0,69,0.00,,,0.00,Wunderground v.1.15,2013-01-02 12:55:00,
2013-01-02 08:00:00,32.3,23.3,30.08,NW,323,2.0,2.0,69,0.00,,,0.00,Wunderground v.1.15,2013-01-02 13:00:00,
2013-01-02 08:10:00,32.2,23.2,30.09,NNE,15,2.0,2.0,69,0.00,,,0.00,Wunderground v.1.15,2013-01-02 13:10:00,
2013-01-02 08:15:00,32.2,23.2,30.09,NE,38,2.0,5.0,69,0.00,,,0.00,Wunderground v.1.15,2013-01-02 13:15:00,
2013-01-02 08:20:00,32.1,23.1,30.09,North,350,2.0,2.0,69,0.00,,,0.00,Wunderground v.1.15,2013-01-02 13:20:00,
2013-01-02 08:25:00,32.0,23.0,30.09,NE,54,2.0,5.0,69,0.00,,,0.00,Wunderground v.1.15,2013-01-02 13:25:00,
2013-01-02 08:30:00,32.0,23.3,30.08,NNW,330,2.0,5.0,70,0.00,,,0.00,Wunderground v.1.15,2013-01-02 13:30:00,
2013-01-02 08:40:00,32.1,23.1,30.09,NNW,333,4.0,4.0,69,0.00,,,0.00,Wunderground v.1.15,2013-01-02 13:40:00,
2013-01-02 08:45:00,32.2,23.2,30.09,WNW,299,3.0,5.0,69,0.00,,,0.00,Wunderground v.1.15,2013-01-02 13:45:00,
2013-01-02 08:50:00,32.3,22.9,30.10,NNW,338,3.0,6.0,68,0.00,,,0.00,Wunderground v.1.15,2013-01-02 13:50:00,
2013-01-02 08:55:00,32.3,22.9,30.10,North,9,3.0,6.0,68,0.00,,,0.00,Wunderground v.1.15,2013-01-02 13:55:00,
2013-01-02 09:05:00,32.5,22.8,30.10,NNW,330,3.0,5.0,67,0.00,,,0.00,Wunderground v.1.15,2013-01-02 14:05:00,
2013-01-02 09:10:00,32.6,22.8,30.10,West,280,3.0,6.0,67,0.00,,,0.00,Wunderground v.1.15,2013-01-02 14:10:00,
2013-01-02 09:15:00,32.5,22.4,30.11,NW,317,4.0,6.0,66,0.00,,,0.00,Wunderground v.1.15,2013-01-02 14:15:00,
2013-01-02 09:20:00,32.5,22.4,30.11,WNW,299,5.0,5.0,66,0.00,,,0.00,Wunderground v.1.15,2013-01-02 14:20:00,
2013-01-02 09:25:00,32.6,22.5,30.11,NNW,347,4.0,5.0,66,0.00,,,0.00,Wunderground v.1.15,2013-01-02 14:25:00,
2013-01-02 09:35:00,32.9,22.8,30.12,WNW,296,3.0,5.0,66,0.00,,,0.00,Wunderground v.1.15,2013-01-02 14:35:00,
2013-01-02 09:40:00,33.0,22.5,30.13,NNW,344,3.0,5.0,65,0.00,,,0.00,Wunderground v.1.15,2013-01-02 14:40:00,
2013-01-02 09:45:00,32.6,21.8,30.13,NNW,344,5.0,5.0,64,0.00,,,0.00,Wunderground v.1.15,2013-01-02 14:45:00,
2013-01-02 09:55:00,32.6,22.5,30.13,NE,52,3.0,6.0,66,0.00,,,0.00,Wunderground v.1.15,2013-01-02 14:55:00,
2013-01-02 10:00:00,32.9,22.0,30.12,NW,314,2.0,5.0,64,0.00,,,0.00,Wunderground v.1.15,2013-01-02 15:00:00,
2013-01-02 10:05:00,33.1,22.6,30.12,NW,311,3.0,5.0,65,0.00,,,0.00,Wunderground v.1.15,2013-01-02 15:05:00,
2013-01-02 10:15:00,33.2,22.3,30.12,NW,319,5.0,10.0,64,0.00,,,0.00,Wunderground v.1.15,2013-01-02 15:15:00,
2013-01-02 10:20:00,33.2,22.3,30.12,NNW,337,6.0,6.0,64,0.00,,,0.00,Wunderground v.1.15,2013-01-02 15:20:00,
2013-01-02 10:25:00,33.3,22.4,30.12,NW,314,6.0,6.0,64,0.00,,,0.00,Wunderground v.1.15,2013-01-02 15:25:00,
2013-01-02 10:30:00,33.5,23.0,30.12,West,281,5.0,5.0,65,0.00,,,0.00,Wunderground v.1.15,2013-01-02 15:30:00,
2013-01-02 10:35:00,34.0,23.1,30.12,ENE,61,3.0,5.0,64,0.00,,,0.00,Wunderground v.1.15,2013-01-02 15:35:00,
2013-01-02 10:45:00,34.1,22.4,30.12,NNW,335,4.0,5.0,62,0.00,,,0.00,Wunderground v.1.15,2013-01-02 15:45:00,
2013-01-02 10:50:00,33.9,22.6,30.12,NW,315,5.0,9.0,63,0.00,,,0.00,Wunderground v.1.15,2013-01-02 15:50:00,
2013-01-02 10:55:00,33.9,22.6,30.12,NW,313,5.0,9.0,63,0.00,,,0.00,Wunderground v.1.15,2013-01-02 15:55:00,
2013-01-02 11:00:00,33.8,22.1,30.11,North,360,5.0,5.0,62,0.00,,,0.00,Wunderground v.1.15,2013-01-02 16:00:00,
2013-01-02 11:05:00,33.6,22.0,30.12,NNW,342,7.0,7.0,62,0.00,,,0.00,Wunderground v.1.15,2013-01-02 16:05:00,
2013-01-02 11:15:00,33.8,22.1,30.12,NNE,17,3.0,6.0,62,0.00,,,0.00,Wunderground v.1.15,2013-01-02 16:15:00,
2013-01-02 11:20:00,33.8,22.1,30.11,NNW,341,3.0,3.0,62,0.00,,,0.00,Wunderground v.1.15,2013-01-02 16:20:00,
2013-01-02 11:25:00,33.7,21.7,30.11,WNW,302,4.0,4.0,61,0.00,,,0.00,Wunderground v.1.15,2013-01-02 16:25:00,
2013-01-02 11:30:00,33.5,21.9,30.11,NW,313,5.0,5.0,62,0.00,,,0.00,Wunderground v.1.15,2013-01-02 16:30:00,
2013-01-02 11:35:00,33.4,21.4,30.10,NNW,328,5.0,6.0,61,0.00,,,0.00,Wunderground v.1.15,2013-01-02 16:35:00,
2013-01-02 11:45:00,33.3,21.7,30.09,NNW,334,6.0,6.0,62,0.00,,,0.00,Wunderground v.1.15,2013-01-02 16:45:00,
2013-01-02 11:50:00,33.7,21.7,30.09,NNW,335,5.0,11.0,61,0.00,,,0.00,Wunderground v.1.15,2013-01-02 16:50:00,
2013-01-02 11:55:00,33.7,21.7,30.09,WNW,286,6.0,11.0,61,0.00,,,0.00,Wunderground v.1.15,2013-01-02 16:55:00,
2013-01-02 12:05:00,34.2,21.7,30.09,NNE,24,4.0,6.0,60,0.00,,,0.00,Wunderground v.1.15,2013-01-02 17:05:00,
2013-01-02 12:10:00,34.0,21.6,30.09,North,350,6.0,6.0,60,0.00,,,0.00,Wunderground v.1.15,2013-01-02 17:10:00,
2013-01-02 12:15:00,34.2,21.7,30.09,WNW,287,5.0,6.0,60,0.00,,,0.00,Wunderground v.1.15,2013-01-02 17:15:00,
2013-01-02 12:20:00,34.1,21.7,30.08,NNW,332,5.0,5.0,60,0.00,,,0.00,Wunderground v.1.15,2013-01-02 17:20:00,
2013-01-02 12:25:00,34.3,21.8,30.08,NNW,348,6.0,6.0,60,0.00,,,0.00,Wunderground v.1.15,2013-01-02 17:25:00,
2013-01-02 12:35:00,34.4,21.5,30.08,WSW,242,6.0,8.0,59,0.00,,,0.00,Wunderground v.1.15,2013-01-02 17:35:00,
2013-01-02 12:40:00,34.7,21.4,30.09,WNW,287,5.0,5.0,58,0.00,,,0.00,Wunderground v.1.15,2013-01-02 17:40:00,
2013-01-02 12:45:00,34.7,21.4,30.08,WNW,293,4.0,5.0,58,0.00,,,0.00,Wunderground v.1.15,2013-01-02 17:45:00,
2013-01-02 12:50:00,34.9,21.6,30.08,NW,322,5.0,5.0,58,0.00,,,0.00,Wunderground v.1.15,2013-01-02 17:50:00,
2013-01-02 13:00:00,35.3,22.0,30.08,North,360,4.0,4.0,58,0.00,,,0.00,Wunderground v.1.15,2013-01-02 18:00:00,
2013-01-02 13:05:00,35.5,22.2,30.08,North,350,3.0,5.0,58,0.00,,,0.00,Wunderground v.1.15,2013-01-02 18:05:00,
2013-01-02 13:10:00,36.2,22.4,30.08,North,350,2.0,7.0,57,0.00,,,0.00,Wunderground v.1.15,2013-01-02 18:10:00,
2013-01-02 13:20:00,35.5,21.3,30.08,NW,304,6.0,12.0,56,0.00,,,0.00,Wunderground v.1.15,2013-01-02 18:20:00,
2013-01-02 13:25:00,35.2,21.5,30.08,West,275,6.0,12.0,57,0.00,,,0.00,Wunderground v.1.15,2013-01-02 18:25:00,
2013-01-02 13:30:00,35.5,21.8,30.09,NE,40,5.0,5.0,57,0.00,,,0.00,Wunderground v.1.15,2013-01-02 18:30:00,
2013-01-02 13:35:00,35.6,21.9,30.08,NW,309,4.0,9.0,57,0.00,,,0.00,Wunderground v.1.15,2013-01-02 18:35:00,
2013-01-02 13:40:00,35.5,21.8,30.08,West,272,5.0,5.0,57,0.00,,,0.00,Wunderground v.1.15,2013-01-02 18:40:00,
2013-01-02 13:50:00,35.5,21.3,30.09,SW,229,6.0,6.0,56,0.00,,,0.00,Wunderground v.1.15,2013-01-02 18:50:00,
2013-01-02 13:55:00,35.5,21.8,30.09,NNW,338,6.0,6.0,57,0.00,,,0.00,Wunderground v.1.15,2013-01-02 18:55:00,
2013-01-02 14:00:00,35.7,21.1,30.09,NW,326,5.0,5.0,55,0.00,,,0.00,Wunderground v.1.15,2013-01-02 19:00:00,
2013-01-02 14:05:00,35.7,21.1,30.09,NW,317,6.0,7.0,55,0.00,,,0.00,Wunderground v.1.15,2013-01-02 19:05:00,
2013-01-02 14:10:00,36.0,21.8,30.09,NNW,330,5.0,8.0,56,0.00,,,0.00,Wunderground v.1.15,2013-01-02 19:10:00,
2013-01-02 14:20:00,35.4,21.2,30.09,NNW,328,5.0,5.0,56,0.00,,,0.00,Wunderground v.1.15,2013-01-02 19:20:00,
2013-01-02 14:25:00,35.7,21.5,30.09,NW,310,5.0,5.0,56,0.00,,,0.00,Wunderground v.1.15,2013-01-02 19:25:00,
2013-01-02 14:30:00,36.1,21.9,30.10,North,360,4.0,8.0,56,0.00,,,0.00,Wunderground v.1.15,2013-01-02 19:30:00,
2013-01-02 14:35:00,35.9,21.7,30.10,NNW,329,4.0,8.0,56,0.00,,,0.00,Wunderground v.1.15,2013-01-02 19:35:00,
2013-01-02 14:40:00,35.5,20.9,30.10,NW,323,4.0,4.0,55,0.00,,,0.00,Wunderground v.1.15,2013-01-02 19:40:00,
2013-01-02 14:50:00,36.0,21.4,30.09,NW,323,5.0,6.0,55,0.00,,,0.00,Wunderground v.1.15,2013-01-02 19:50:00,
2013-01-02 14:55:00,36.2,21.6,30.09,NNE,29,3.0,6.0,55,0.00,,,0.00,Wunderground v.1.15,2013-01-02 19:55:00,
2013-01-02 15:00:00,36.8,22.1,30.09,West,280,2.0,5.0,55,0.00,,,0.00,Wunderground v.1.15,2013-01-02 20:00:00,
2013-01-02 15:05:00,35.9,20.9,30.10,NW,308,4.0,5.0,54,0.00,,,0.00,Wunderground v.1.15,2013-01-02 20:05:00,
2013-01-02 15:10:00,35.3,20.7,30.10,NNW,329,7.0,7.0,55,0.00,,,0.00,Wunderground v.1.15,2013-01-02 20:10:00,
2013-01-02 15:20:00,35.7,21.1,30.10,NW,319,3.0,5.0,55,0.00,,,0.00,Wunderground v.1.15,2013-01-02 20:20:00,
2013-01-02 15:25:00,35.6,21.4,30.11,NW,319,3.0,5.0,56,0.00,,,0.00,Wunderground v.1.15,2013-01-02 20:25:00,
2013-01-02 15:30:00,35.6,20.6,30.11,NNW,337,4.0,4.0,54,0.00,,,0.00,Wunderground v.1.15,2013-01-02 20:30:00,
2013-01-02 15:40:00,35.7,21.5,30.11,NNW,340,3.0,3.0,56,0.00,,,0.00,Wunderground v.1.15,2013-01-02 20:40:00,
2013-01-02 15:45:00,35.6,21.0,30.12,NNW,338,2.0,5.0,55,0.00,,,0.00,Wunderground v.1.15,2013-01-02 20:45:00,
2013-01-02 15:50:00,35.2,21.5,30.12,NNW,341,2.0,2.0,57,0.00,,,0.00,Wunderground v.1.15,2013-01-02 20:50:00,
2013-01-02 15:55:00,35.2,21.5,30.12,NNW,344,1.0,5.0,57,0.00,,,0.00,Wunderground v.1.15,2013-01-02 20:55:00,
2013-01-02 16:00:00,35.2,21.9,30.12,NNW,344,1.0,1.0,58,0.00,,,0.00,Wunderground v.1.15,2013-01-02 21:00:00,
2013-01-02 16:10:00,34.8,21.1,30.13,NNW,348,1.0,1.0,57,0.00,,,0.00,Wunderground v.1.15,2013-01-02 21:10:00,
2013-01-02 16:15:00,34.8,21.1,30.13,NNW,327,1.0,2.0,57,0.00,,,0.00,Wunderground v.1.15,2013-01-02 21:15:00,
2013-01-02 16:20:00,34.9,21.6,30.14,NE,37,1.0,1.0,58,0.00,,,0.00,Wunderground v.1.15,2013-01-02 21:20:00,
2013-01-02 16:25:00,34.8,21.1,30.14,NNW,330,1.0,5.0,57,0.00,,,0.00,Wunderground v.1.15,2013-01-02 21:25:00,
2013-01-02 16:30:00,34.5,21.2,30.14,NNW,331,1.0,1.0,58,0.00,,,0.00,Wunderground v.1.15,2013-01-02 21:30:00,
2013-01-02 16:40:00,34.4,21.1,30.14,NNW,344,1.0,5.0,58,0.00,,,0.00,Wunderground v.1.15,2013-01-02 21:40:00,
2013-01-02 16:45:00,34.2,20.9,30.14,North,5,1.0,5.0,58,0.00,,,0.00,Wunderground v.1.15,2013-01-02 21:45:00,
2013-01-02 16:50:00,34.0,20.3,30.14,WNW,302,2.0,6.0,57,0.00,,,0.00,Wunderground v.1.15,2013-01-02 21:50:00,
2013-01-02 16:55:00,33.8,20.6,30.14,NNW,329,2.0,6.0,58,0.00,,,0.00,Wunderground v.1.15,2013-01-02 21:55:00,
2013-01-02 17:00:00,33.7,20.5,30.14,NNW,327,2.0,5.0,58,0.00,,,0.00,Wunderground v.1.15,2013-01-02 22:00:00,
2013-01-02 17:10:00,33.6,20.8,30.14,NW,322,1.0,1.0,59,0.00,,,0.00,Wunderground v.1.15,2013-01-02 22:10:00,
2013-01-02 17:15:00,33.6,21.2,30.14,NW,322,0.0,5.0,60,0.00,,,0.00,Wunderground v.1.15,2013-01-02 22:15:00,
2013-01-02 17:20:00,33.6,20.8,30.15,NW,322,0.0,5.0,59,0.00,,,0.00,Wunderground v.1.15,2013-01-02 22:20:00,
2013-01-02 17:25:00,33.5,20.7,30.15,NW,325,0.0,5.0,59,0.00,,,0.00,Wunderground v.1.15,2013-01-02 22:25:00,
2013-01-02 17:30:00,33.6,21.2,30.15,NW,325,0.0,5.0,60,0.00,,,0.00,Wunderground v.1.15,2013-01-02 22:30:00,
2013-01-02 17:40:00,33.8,21.4,30.15,NW,325,0.0,5.0,60,0.00,,,0.00,Wunderground v.1.15,2013-01-02 22:40:00,
2013-01-02 17:45:00,33.5,20.7,30.15,NW,325,0.0,5.0,59,0.00,,,0.00,Wunderground v.1.15,2013-01-02 22:45:00,
2013-01-02 17:50:00,33.4,21.0,30.16,NW,325,0.0,5.0,60,0.00,,,0.00,Wunderground v.1.15,2013-01-02 22:50:00,
2013-01-02 18:00:00,33.5,21.1,30.17,NW,325,0.0,5.0,60,0.00,,,0.00,Wunderground v.1.15,2013-01-02 23:00:00,
2013-01-02 18:05:00,33.6,20.8,30.17,NW,325,0.0,5.0,59,0.00,,,0.00,Wunderground v.1.15,2013-01-02 23:05:00,
2013-01-02 18:10:00,33.4,19.8,30.17,NW,325,1.0,1.0,57,0.00,,,0.00,Wunderground v.1.15,2013-01-02 23:10:00,
2013-01-02 18:15:00,33.2,20.8,30.17,NW,325,1.0,5.0,60,0.00,,,0.00,Wunderground v.1.15,2013-01-02 23:15:00,
2013-01-02 18:20:00,33.1,20.3,30.17,NW,325,0.0,5.0,59,0.00,,,0.00,Wunderground v.1.15,2013-01-02 23:20:00,
2013-01-02 18:30:00,33.2,22.0,30.17,NW,325,0.0,5.0,63,0.00,,,0.00,Wunderground v.1.15,2013-01-02 23:30:00,
2013-01-02 18:35:00,33.3,21.3,30.17,NW,325,0.0,5.0,61,0.00,,,0.00,Wunderground v.1.15,2013-01-02 23:35:00,
2013-01-02 18:40:00,33.0,20.6,30.17,NW,325,0.0,5.0,60,0.00,,,0.00,Wunderground v.1.15,2013-01-02 23:40:00,
2013-01-02 18:45:00,32.7,21.5,30.17,NW,325,0.0,5.0,63,0.00,,,0.00,Wunderground v.1.15,2013-01-02 23:45:00,
2013-01-02 18:50:00,32.5,20.5,30.18,NW,325,0.0,5.0,61,0.00,,,0.00,Wunderground v.1.15,2013-01-02 23:50:00,
2013-01-02 19:00:00,32.3,20.7,30.18,NW,325,0.0,5.0,62,0.00,,,0.00,Wunderground v.1.15,2013-01-03 00:00:00,
2013-01-02 19:05:00,32.1,21.7,30.18,NW,325,0.0,5.0,65,0.00,,,0.00,Wunderground v.1.15,2013-01-03 00:05:00,
2013-01-02 19:10:00,32.3,22.9,30.18,NW,325,0.0,5.0,68,0.00,,,0.00,Wunderground v.1.15,2013-01-03 00:10:00,
2013-01-02 19:15:00,32.3,20.7,30.18,NW,325,0.0,5.0,62,0.00,,,0.00,Wunderground v.1.15,2013-01-03 00:15:00,
2013-01-02 19:20:00,32.1,20.5,30.18,NW,325,0.0,5.0,62,0.00,,,0.00,Wunderground v.1.15,2013-01-03 00:20:00,
2013-01-02 19:30:00,32.0,19.7,30.17,NW,325,0.0,5.0,60,0.00,,,0.00,Wunderground v.1.15,2013-01-03 00:30:00,
2013-01-02 19:35:00,31.9,20.3,30.17,NW,325,0.0,5.0,62,0.00,,,0.00,Wunderground v.1.15,2013-01-03 00:35:00,
2013-01-02 19:40:00,31.9,18.8,30.19,NW,325,0.0,5.0,58,0.00,,,0.00,Wunderground v.1.15,2013-01-03 00:40:00,
2013-01-02 19:45:00,31.7,18.6,30.18,NW,325,1.0,5.0,58,0.00,,,0.00,Wunderground v.1.15,2013-01-03 00:45:00,
2013-01-02 19:50:00,31.7,19.0,30.18,NW,325,0.0,5.0,59,0.00,,,0.00,Wunderground v.1.15,2013-01-03 00:50:00,
2013-01-02 20:00:00,31.6,17.7,30.18,NNW,328,1.0,1.0,56,0.00,,,0.00,Wunderground v.1.15,2013-01-03 01:00:00,
2013-01-02 20:05:00,31.5,18.0,30.18,NNW,328,0.0,5.0,57,0.00,,,0.00,Wunderground v.1.15,2013-01-03 01:05:00,
2013-01-02 20:10:00,31.4,17.5,30.18,NNW,327,0.0,5.0,56,0.00,,,0.00,Wunderground v.1.15,2013-01-03 01:10:00,
2013-01-02 20:20:00,31.5,20.0,30.18,NNW,328,0.0,5.0,62,0.00,,,0.00,Wunderground v.1.15,2013-01-03 01:20:00,
2013-01-02 20:25:00,31.6,19.7,30.18,NNW,328,0.0,5.0,61,0.00,,,0.00,Wunderground v.1.15,2013-01-03 01:25:00,
2013-01-02 20:30:00,31.6,19.7,30.19,NNW,328,0.0,5.0,61,0.00,,,0.00,Wunderground v.1.15,2013-01-03 01:30:00,
2013-01-02 20:35:00,31.5,18.0,30.19,NNW,328,0.0,5.0,57,0.00,,,0.00,Wunderground v.1.15,2013-01-03 01:35:00,
2013-01-02 20:40:00,31.2,17.7,30.19,NNW,328,0.0,5.0,57,0.00,,,0.00,Wunderground v.1.15,2013-01-03 01:40:00,
2013-01-02 20:50:00,31.2,17.7,30.20,NNW,328,0.0,5.0,57,0.00,,,0.00,Wunderground v.1.15,2013-01-03 01:50:00,
2013-01-02 20:55:00,31.0,17.9,30.19,NNW,327,0.0,5.0,58,0.00,,,0.00,Wunderground v.1.15,2013-01-03 01:55:00,
2013-01-02 21:00:00,30.9,18.6,30.19,NNW,327,0.0,5.0,60,0.00,,,0.00,Wunderground v.1.15,2013-01-03 02:00:00,
2013-01-02 21:05:00,31.0,19.9,30.20,NNW,328,0.0,5.0,63,0.00,,,0.00,Wunderground v.1.15,2013-01-03 02:05:00,
2013-01-02 21:15:00,31.2,17.7,30.20,NNW,328,0.0,5.0,57,0.00,,,0.00,Wunderground v.1.15,2013-01-03 02:15:00,
2013-01-02 21:20:00,31.0,17.1,30.20,NW,323,1.0,1.0,56,0.00,,,0.00,Wunderground v.1.15,2013-01-03 02:20:00,
2013-01-02 21:25:00,31.0,17.5,30.20,NW,324,1.0,5.0,57,0.00,,,0.00,Wunderground v.1.15,2013-01-03 02:25:00,
2013-01-02 21:30:00,31.0,17.9,30.20,NW,324,0.0,5.0,58,0.00,,,0.00,Wunderground v.1.15,2013-01-03 02:30:00,
2013-01-02 21:40:00,30.8,16.9,30.21,NW,321,1.0,5.0,56,0.00,,,0.00,Wunderground v.1.15,2013-01-03 02:40:00,
2013-01-02 21:45:00,30.8,16.5,30.21,NW,318,1.0,5.0,55,0.00,,,0.00,Wunderground v.1.15,2013-01-03 02:45:00,
2013-01-02 21:50:00,30.8,16.9,30.21,NW,318,1.0,1.0,56,0.00,,,0.00,Wunderground v.1.15,2013-01-03 02:50:00,
2013-01-02 21:55:00,30.9,17.0,30.21,NW,318,0.0,2.0,56,0.00,,,0.00,Wunderground v.1.15,2013-01-03 02:55:00,
2013-01-02 22:05:00,30.8,16.9,30.21,NW,319,1.0,1.0,56,0.00,,,0.00,Wunderground v.1.15,2013-01-03 03:05:00,
2013-01-02 22:10:00,30.7,16.8,30.22,NW,314,1.0,1.0,56,0.00,,,0.00,Wunderground v.1.15,2013-01-03 03:10:00,
2013-01-02 22:15:00,30.7,16.8,30.23,NW,314,0.0,1.0,56,0.00,,,0.00,Wunderground v.1.15,2013-01-03 03:15:00,
2013-01-02 22:20:00,30.6,17.6,30.22,NW,314,0.0,0.0,58,0.00,,,0.00,Wunderground v.1.15,2013-01-03 03:20:00,
2013-01-02 22:30:00,30.5,16.7,30.22,NW,314,0.0,2.0,56,0.00,,,0.00,Wunderground v.1.15,2013-01-03 03:30:00,
2013-01-02 22:35:00,30.4,16.6,30.22,NW,315,1.0,4.0,56,0.00,,,0.00,Wunderground v.1.15,2013-01-03 03:35:00,
2013-01-02 22:45:00,30.3,16.9,30.23,NW,315,1.0,4.0,57,0.00,,,0.00,Wunderground v.1.15,2013-01-03 03:45:00,
2013-01-02 22:50:00,30.2,16.8,30.22,NW,315,0.0,4.0,57,0.00,,,0.00,Wunderground v.1.15,2013-01-03 03:50:00,
2013-01-02 22:55:00,30.2,17.2,30.24,NW,315,0.0,4.0,58,0.00,,,0.00,Wunderground v.1.15,2013-01-03 03:55:00,
2013-01-02 23:00:00,30.2,18.0,30.23,NW,315,0.0,4.0,60,0.00,,,0.00,Wunderground v.1.15,2013-01-03 04:00:00,
2013-01-02 23:05:00,30.1,17.9,30.23,NW,315,0.0,4.0,60,0.00,,,0.00,Wunderground v.1.15,2013-01-03 04:05:00,
2013-01-02 23:15:00,30.0,17.8,30.22,NW,315,0.0,4.0,60,0.00,,,0.00,Wunderground v.1.15,2013-01-03 04:15:00,
2013-01-02 23:20:00,29.9,18.1,30.22,NW,315,0.0,4.0,61,0.00,,,0.00,Wunderground v.1.15,2013-01-03 04:20:00,
2013-01-02 23:25:00,29.8,17.2,30.22,NW,315,0.0,4.0,59,0.00,,,0.00,Wunderground v.1.15,2013-01-03 04:25:00,
2013-01-02 23:30:00,29.7,17.5,30.21,NW,315,0.0,4.0,60,0.00,,,0.00,Wunderground v.1.15,2013-01-03 04:30:00,
2013-01-02 23:35:00,29.7,17.9,30.21,NW,315,0.0,4.0,61,0.00,,,0.00,Wunderground v.1.15,2013-01-03 04:35:00,
2013-01-02 23:45:00,29.5,17.3,30.22,NW,315,0.0,4.0,60,0.00,,,0.00,Wunderground v.1.15,2013-01-03 04:45:00,
2013-01-02 23:50:00,29.4,17.6,30.22,NW,315,0.0,4.0,61,0.00,,,0.00,Wunderground v.1.15,2013-01-03 04:50:00,
2013-01-02 23:55:00,29.5,19.9,30.22,NW,315,0.0,4.0,67,0.00,,,0.00,Wunderground v.1.15,2013-01-03 04:55:00,